Time;durP1;ratioP1;P1;durP2;ratioP2;P2;SDS_P1;SDS_P2;PMS_P1;PMS_P2;Temp;Humidity;BMP_temperature;BMP_pressure;BME280_temperature;BME280_humidity;BME280_pressure;Samples;Min_cycle;Max_cycle;Signal;HPM_P1;HPM_P2
2023/01/15 00:02:08;;;;;;;24.05;10.03;;;;;;;-0.83;97.95;101005.73;1708126;84;21664;-62
2023/01/15 00:04:37;;;;;;;24.43;9.80;;;;;;;-0.84;98.00;101009.39;1708074;83;21701;-60
2023/01/15 00:07:06;;;;;;;24.20;9.98;;;;;;;-0.86;98.02;101002.77;1715701;83;21126;-61
2023/01/15 00:09:36;;;;;;;23.57;10.53;;;;;;;-0.87;98.08;101001.53;1751781;82;21158;-59
2023/01/15 00:12:05;;;;;;;26.07;10.43;;;;;;;-0.87;98.18;100998.84;1751719;81;21138;-60
2023/01/15 00:14:35;;;;;;;24.87;9.85;;;;;;;-0.86;98.23;100996.53;1751854;81;21178;-60
2023/01/15 00:17:04;;;;;;;23.80;9.53;;;;;;;-0.87;98.32;100998.36;1751489;82;21519;-60
2023/01/15 00:19:32;;;;;;;24.70;10.03;;;;;;;-0.86;98.39;101001.91;1751639;82;21210;-59
2023/01/15 00:22:02;;;;;;;23.73;9.95;;;;;;;-0.87;98.43;101001.05;1751496;82;21624;-60
2023/01/15 00:30:09;;;;;;;24.90;10.28;;;;;;;-0.86;98.63;100999.22;1751593;81;21151;-61
2023/01/15 00:32:42;;;;;;;23.35;9.10;;;;;;;-0.88;98.67;100991.27;1751024;80;21558;-59
2023/01/15 00:35:14;;;;;;;22.67;9.48;;;;;;;-0.87;98.73;100998.36;1751793;81;21154;-60
2023/01/15 00:37:44;;;;;;;22.35;8.98;;;;;;;-0.86;98.80;100995.19;1751758;82;21593;-60
2023/01/15 00:40:14;;;;;;;23.47;9.80;;;;;;;-0.87;98.85;100990.29;1751781;81;21554;-59
2023/01/15 00:42:43;;;;;;;22.95;9.43;;;;;;;-0.87;98.87;100989.44;1751642;82;21527;-60
2023/01/15 00:45:14;;;;;;;21.17;8.95;;;;;;;-0.90;98.92;100984.27;1750307;81;21310;-60
2023/01/15 00:47:44;;;;;;;23.18;10.18;;;;;;;-0.91;99.03;100983.90;1751818;81;21139;-60
2023/01/15 00:50:14;;;;;;;20.68;8.85;;;;;;;-0.93;99.08;100984.49;1751539;82;21155;-60
2023/01/15 00:52:43;;;;;;;21.42;9.18;;;;;;;-0.93;99.19;100979.11;1751645;81;21123;-61
2023/01/15 00:55:12;;;;;;;24.95;10.03;;;;;;;-0.92;99.32;100978.14;1751722;81;21680;-60
2023/01/15 00:57:41;;;;;;;22.37;8.98;;;;;;;-0.92;99.42;100972.77;1747298;81;21677;-59
2023/01/15 01:00:11;;;;;;;22.05;8.93;;;;;;;-0.91;99.49;100979.86;1743811;82;21242;-60
2023/01/15 01:02:40;;;;;;;23.07;9.20;;;;;;;-0.90;99.55;100974.86;1733344;82;21143;-60
2023/01/15 01:05:09;;;;;;;19.65;8.68;;;;;;;-0.90;99.61;100966.79;1743100;82;21511;-61
2023/01/15 01:07:40;;;;;;;23.22;9.15;;;;;;;-0.90;99.70;100970.34;1743646;81;21095;-60
2023/01/15 01:10:11;;;;;;;21.77;9.05;;;;;;;-0.89;99.82;100968.51;1743592;82;21198;-61
2023/01/15 01:12:40;;;;;;;21.62;9.10;;;;;;;-0.87;99.90;100972.80;1743520;81;21139;-59
2023/01/15 01:15:10;;;;;;;22.42;9.08;;;;;;;-0.86;99.90;100966.94;1743514;82;21186;-61
2023/01/15 01:17:40;;;;;;;19.52;8.33;;;;;;;-0.89;99.93;100965.81;1743864;81;21083;-60
2023/01/15 01:20:11;;;;;;;19.40;8.53;;;;;;;-0.89;100.00;100968.02;1743503;81;21147;-60
2023/01/15 01:22:40;;;;;;;25.45;9.35;;;;;;;-0.89;100.00;100970.71;1733116;81;21115;-60
2023/01/15 01:25:09;;;;;;;23.80;8.75;;;;;;;-0.88;100.00;100971.58;1743748;82;21127;-59
2023/01/15 01:27:38;;;;;;;18.10;8.10;;;;;;;-0.88;100.00;100964.84;1743463;81;21131;-60
2023/01/15 01:30:09;;;;;;;19.90;8.28;;;;;;;-0.87;100.00;100962.53;1743909;81;21524;-61
2023/01/15 01:32:39;;;;;;;24.67;9.45;;;;;;;-0.85;100.00;100964.62;1743625;82;21171;-60
2023/01/15 01:35:09;;;;;;;19.92;8.43;;;;;;;-0.87;100.00;100963.88;1743704;82;21099;-60
2023/01/15 01:37:37;;;;;;;21.15;8.65;;;;;;;-0.88;100.00;100968.88;1743507;81;21163;-60
2023/01/15 01:40:08;;;;;;;20.97;8.28;;;;;;;-0.88;100.00;100963.50;1743664;81;21159;-60
2023/01/15 01:42:38;;;;;;;18.15;7.45;;;;;;;-0.90;100.00;100965.44;1743856;81;21182;-63
2023/01/15 01:45:28;;;;;;;23.38;8.40;;;;;;;-0.91;100.00;100958.34;1743795;82;21107;-60
2023/01/15 01:48:01;;;;;;;19.90;8.55;;;;;;;-0.90;100.00;100960.92;1743623;82;21159;-60
2023/01/15 01:50:32;;;;;;;23.47;9.50;;;;;;;-0.90;100.00;100958.23;1743696;81;21507;-60
2023/01/15 01:53:12;;;;;;;21.90;9.08;;;;;;;-0.88;100.00;100963.50;1743340;82;21060;-61
2023/01/15 01:55:41;;;;;;;21.45;8.35;;;;;;;-0.87;100.00;100954.47;1743453;81;21032;-60
2023/01/15 01:58:11;;;;;;;21.07;8.60;;;;;;;-0.88;100.00;100960.81;1743689;82;21103;-60
2023/01/15 02:00:41;;;;;;;20.27;9.33;;;;;;;-0.88;100.00;100964.36;1743564;82;21510;-60
2023/01/15 02:03:10;;;;;;;20.50;8.95;;;;;;;-0.85;100.00;100965.97;1743671;82;21047;-60
2023/01/15 02:05:42;;;;;;;23.75;9.10;;;;;;;-0.82;100.00;100972.47;1743738;81;21016;-61
2023/01/15 02:08:11;;;;;;;23.10;8.70;;;;;;;-0.81;100.00;100971.50;1743766;81;21028;-59
2023/01/15 02:10:40;;;;;;;19.20;8.55;;;;;;;-0.80;100.00;100971.88;1743037;81;21444;-60
2023/01/15 02:13:55;;;;;;;19.37;8.53;;;;;;;-0.80;100.00;100975.91;1743513;81;21249;-60
2023/01/15 02:16:35;;;;;;;23.95;9.08;;;;;;;-0.83;100.00;100977.48;1737992;81;21024;-60
2023/01/15 02:19:28;;;;;;;22.05;9.20;;;;;;;-0.85;100.00;100974.04;1739286;81;21499;-61
2023/01/15 02:22:37;;;;;;;23.52;9.25;;;;;;;-0.85;100.00;100978.08;1743844;81;21024;-61
2023/01/15 02:25:45;;;;;;;26.20;9.38;;;;;;;-0.84;100.00;100973.07;1743350;81;21013;-60
2023/01/15 02:28:25;;;;;;;24.67;10.33;;;;;;;-0.84;100.00;100969.03;1743567;81;21008;-59
2023/01/15 02:31:11;;;;;;;25.82;10.28;;;;;;;-0.86;100.00;100965.59;1743401;82;20988;-59
2023/01/15 02:33:44;;;;;;;26.27;10.80;;;;;;;-0.84;100.00;100965.00;1743788;81;21044;-60
2023/01/15 02:36:14;;;;;;;25.12;10.18;;;;;;;-0.84;100.00;100966.34;1743717;82;21083;-60
2023/01/15 02:38:48;;;;;;;25.88;10.15;;;;;;;-0.84;100.00;100956.93;1743653;82;21019;-60
2023/01/15 02:41:21;;;;;;;25.88;9.98;;;;;;;-0.83;100.00;100965.38;1743882;81;21052;-62
2023/01/15 02:43:53;;;;;;;31.15;10.95;;;;;;;-0.80;100.00;100959.28;1743627;82;21083;-61
2023/01/15 02:46:27;;;;;;;28.77;11.15;;;;;;;-0.80;100.00;100963.32;1743540;82;21052;-59
2023/01/15 02:48:55;;;;;;;29.55;10.82;;;;;;;-0.81;100.00;100960.26;1743773;81;21585;-59
2023/01/15 02:51:28;;;;;;;28.62;11.05;;;;;;;-0.80;100.00;100961.12;1743474;82;21054;-62
2023/01/15 02:53:59;;;;;;;28.12;10.63;;;;;;;-0.80;100.00;100956.59;1733201;82;21483;-59
2023/01/15 02:56:30;;;;;;;24.55;9.90;;;;;;;-0.81;100.00;100954.02;1743498;81;21012;-59
2023/01/15 02:59:05;;;;;;;29.87;11.08;;;;;;;-0.82;100.00;100943.73;1754207;81;21043;-59
2023/01/15 03:01:47;;;;;;;32.45;11.40;;;;;;;-0.80;100.00;100947.67;1757009;82;21043;-60
2023/01/15 03:04:25;;;;;;;29.12;11.45;;;;;;;-0.80;100.00;100940.45;1756987;81;21019;-60
2023/01/15 03:07:07;;;;;;;25.65;10.53;;;;;;;-0.81;100.00;100933.36;1706364;83;21063;-60
2023/01/15 03:09:37;;;;;;;25.05;10.88;;;;;;;-0.80;100.00;100938.25;1706735;83;21036;-60
2023/01/15 03:12:25;;;;;;;26.33;10.93;;;;;;;-0.80;100.00;100938.25;1706896;84;21015;-60
2023/01/15 03:15:09;;;;;;;27.73;11.45;;;;;;;-0.79;100.00;100948.04;1706791;83;21584;-61
2023/01/15 03:17:53;;;;;;;31.85;11.57;;;;;;;-0.78;100.00;100950.62;1706637;84;21075;-61
2023/01/15 03:20:26;;;;;;;26.00;10.00;;;;;;;-0.76;100.00;100955.89;1707195;84;21060;-60
2023/01/15 03:23:01;;;;;;;29.67;10.88;;;;;;;-0.76;100.00;100950.02;1707438;84;21460;-60
2023/01/15 03:25:34;;;;;;;24.15;10.18;;;;;;;-0.76;100.00;100947.81;1739877;82;21031;-63
2023/01/15 03:28:03;;;;;;;27.48;10.93;;;;;;;-0.75;100.00;100945.50;1757290;82;21493;-61
2023/01/15 03:30:34;;;;;;;27.65;11.85;;;;;;;-0.76;100.00;100949.16;1757235;80;21027;-60
2023/01/15 03:33:05;;;;;;;27.07;11.18;;;;;;;-0.76;100.00;100948.67;1756900;82;21023;-60
2023/01/15 03:35:45;;;;;;;24.80;10.25;;;;;;;-0.75;100.00;100940.12;1756947;82;21020;-61
2023/01/15 03:38:20;;;;;;;24.43;10.15;;;;;;;-0.74;100.00;100942.70;1757054;80;21007;-60
2023/01/15 03:41:15;;;;;;;25.27;10.43;;;;;;;-0.74;100.00;100930.59;1756903;81;21039;-62
2023/01/15 03:43:59;;;;;;;30.30;11.35;;;;;;;-0.76;100.00;100931.67;1757133;82;21495;-61
2023/01/15 03:47:12;;;;;;;28.55;10.63;;;;;;;-0.77;99.99;100937.54;1760262;81;21052;-60
2023/01/15 03:49:53;;;;;;;29.72;10.45;;;;;;;-0.75;99.95;100942.81;1756956;80;21051;-60
2023/01/15 03:52:36;;;;;;;28.87;10.75;;;;;;;-0.75;99.98;100945.02;1756594;80;20996;-60
2023/01/15 03:55:17;;;;;;;29.77;10.55;;;;;;;-0.75;99.94;100943.67;1757005;82;21050;-61
2023/01/15 03:57:52;;;;;;;27.82;9.78;;;;;;;-0.74;99.93;100939.14;1756332;80;21090;-61
2023/01/15 04:00:26;;;;;;;28.20;10.50;;;;;;;-0.76;99.86;100941.09;1756813;80;21063;-60
2023/01/15 04:02:56;;;;;;;30.85;11.60;;;;;;;-0.77;99.84;100940.72;1756943;82;21020;-60
2023/01/15 04:05:28;;;;;;;26.50;9.95;;;;;;;-0.78;99.78;100937.66;1756801;80;21011;-61
2023/01/15 04:07:58;;;;;;;28.40;10.95;;;;;;;-0.79;99.71;100938.63;1756636;80;21063;-61
2023/01/15 04:10:27;;;;;;;28.87;10.70;;;;;;;-0.81;99.64;100941.91;1756998;81;21031;-61
2023/01/15 04:12:58;;;;;;;30.62;10.93;;;;;;;-0.81;99.68;100937.88;1757123;81;21524;-62
2023/01/15 04:15:26;;;;;;;35.08;13.08;;;;;;;-0.79;99.67;100930.55;1757308;81;21039;-61
2023/01/15 04:17:56;;;;;;;27.73;10.60;;;;;;;-0.79;99.69;100931.41;1756790;82;21451;-61
2023/01/15 04:20:26;;;;;;;34.63;11.57;;;;;;;-0.77;99.64;100930.81;1756754;82;21043;-61
2023/01/15 04:22:55;;;;;;;32.58;10.95;;;;;;;-0.77;99.63;100929.95;1757184;80;21459;-61
2023/01/15 04:25:23;;;;;;;31.50;11.40;;;;;;;-0.77;99.60;100921.40;1757040;80;20976;-60
2023/01/15 04:27:54;;;;;;;31.80;11.70;;;;;;;-0.77;99.57;100933.98;1756979;81;21446;-61
2023/01/15 04:30:24;;;;;;;30.92;11.93;;;;;;;-0.78;99.52;100938.52;1757174;80;21312;-61
2023/01/15 04:32:54;;;;;;;33.00;12.00;;;;;;;-0.77;99.53;100932.64;1757317;82;21392;-61
2023/01/15 04:35:24;;;;;;;33.85;12.23;;;;;;;-0.77;99.47;100933.98;1756906;81;21090;-61
2023/01/15 04:37:57;;;;;;;31.45;11.88;;;;;;;-0.78;99.43;100926.41;1756445;80;21039;-61
2023/01/15 04:46:01;;;;;;;32.45;11.33;;;;;;;-0.78;99.37;100931.78;1757117;81;21892;-62
2023/01/15 04:48:31;;;;;;;35.63;12.35;;;;;;;-0.76;99.37;100927.16;1757076;82;21443;-61
2023/01/15 04:51:05;;;;;;;31.05;10.82;;;;;;;-0.79;99.23;100917.96;1756816;80;21028;-61
2023/01/15 04:53:34;;;;;;;28.98;10.78;;;;;;;-0.79;99.21;100918.45;1756763;81;21054;-61
2023/01/15 04:56:04;;;;;;;30.88;11.48;;;;;;;-0.81;99.18;100915.87;1756850;81;21467;-62
2023/01/15 04:58:33;;;;;;;32.40;11.68;;;;;;;-0.81;99.22;100917.22;1756725;81;21460;-60
2023/01/15 05:01:01;;;;;;;31.93;11.38;;;;;;;-0.80;99.15;100912.70;1757203;82;21451;-60
2023/01/15 05:03:31;;;;;;;35.90;12.85;;;;;;;-0.81;99.17;100915.87;1756896;81;21447;-60
2023/01/15 05:06:02;;;;;;;37.15;12.45;;;;;;;-0.80;99.13;100930.18;1757178;82;21015;-60
2023/01/15 05:08:33;;;;;;;36.73;12.35;;;;;;;-0.81;99.07;100927.97;1756962;80;21075;-61
2023/01/15 05:11:03;;;;;;;37.93;12.30;;;;;;;-0.84;98.96;100924.16;1756825;80;21071;-63
2023/01/15 05:13:32;;;;;;;40.60;13.95;;;;;;;-0.84;99.00;100912.06;1756649;80;20988;-62
2023/01/15 05:16:16;;;;;;;36.88;12.43;;;;;;;-0.84;99.07;100916.58;1756779;81;21466;-62
2023/01/15 05:18:46;;;;;;;36.10;12.93;;;;;;;-0.84;99.05;100912.06;1757008;82;21035;-62
2023/01/15 05:21:19;;;;;;;38.65;12.03;;;;;;;-0.82;99.06;100918.67;1757115;82;21435;-62
2023/01/15 05:23:49;;;;;;;40.03;12.98;;;;;;;-0.83;99.00;100919.64;1757143;82;21058;-62
2023/01/15 05:26:20;;;;;;;40.60;14.43;;;;;;;-0.84;99.04;100923.30;1756849;81;21043;-63
2023/01/15 05:28:48;;;;;;;39.88;13.98;;;;;;;-0.84;99.09;100920.62;1756912;80;21043;-63
2023/01/15 05:31:17;;;;;;;41.05;13.58;;;;;;;-0.84;99.13;100916.58;1757095;82;21435;-62
2023/01/15 05:33:47;;;;;;;38.88;13.32;;;;;;;-0.84;99.15;100916.58;1756919;81;21412;-62
2023/01/15 05:36:19;;;;;;;38.10;12.70;;;;;;;-0.84;99.16;100911.20;1757187;81;21003;-62
2023/01/15 05:38:48;;;;;;;40.25;13.90;;;;;;;-0.85;99.08;100910.83;1756978;81;21322;-61
2023/01/15 05:44:09;;;;;;;43.00;14.68;;;;;;;-0.83;99.18;100914.27;1756407;81;21501;-61
2023/01/15 05:46:41;;;;;;;46.45;14.30;;;;;;;-0.82;99.11;100917.33;1757130;81;21082;-59
2023/01/15 05:49:16;;;;;;;40.48;13.85;;;;;;;-0.82;99.15;100915.98;1756978;81;21008;-61
2023/01/15 05:51:44;;;;;;;43.17;13.60;;;;;;;-0.82;99.14;100912.80;1757075;80;22053;-61
2023/01/15 05:54:21;;;;;;;44.45;14.58;;;;;;;-0.83;99.12;100910.23;1757011;82;21467;-61
2023/01/15 05:56:51;;;;;;;43.50;15.00;;;;;;;-0.86;99.11;100907.28;1757024;82;21043;-61
2023/01/15 05:59:23;;;;;;;43.78;15.13;;;;;;;-0.87;99.04;100923.05;1749956;80;21549;-63
2023/01/15 06:01:52;;;;;;;43.40;15.60;;;;;;;-0.91;99.05;100919.34;1743522;81;21020;-61
2023/01/15 06:04:21;;;;;;;42.48;14.35;;;;;;;-0.94;99.16;100923.59;1743939;81;21020;-60
2023/01/15 06:06:53;;;;;;;43.23;14.23;;;;;;;-0.93;99.24;100919.94;1743549;81;21451;-60
2023/01/15 06:09:22;;;;;;;40.23;13.48;;;;;;;-0.92;99.28;100925.20;1743740;81;21039;-59
2023/01/15 06:11:52;;;;;;;38.00;13.32;;;;;;;-0.91;99.30;100928.75;1743736;81;21024;-60
2023/01/15 06:14:21;;;;;;;47.38;15.08;;;;;;;-0.91;99.30;100922.89;1743469;81;21064;-60
2023/01/15 06:16:50;;;;;;;40.55;13.95;;;;;;;-0.88;99.38;100923.16;1743123;81;21036;-61
2023/01/15 06:19:19;;;;;;;43.17;13.90;;;;;;;-0.87;99.37;100926.22;1743949;81;21044;-61
2023/01/15 06:21:48;;;;;;;39.50;13.08;;;;;;;-0.87;99.38;100915.46;1743708;82;21921;-62
2023/01/15 06:24:17;;;;;;;38.92;13.88;;;;;;;-0.84;99.42;100919.27;1743495;81;21036;-61
2023/01/15 06:26:47;;;;;;;41.73;14.13;;;;;;;-0.83;99.39;100912.91;1743534;81;21017;-62
2023/01/15 06:29:17;;;;;;;41.28;14.68;;;;;;;-0.83;99.35;100909.74;1743941;81;21439;-62
2023/01/15 06:31:46;;;;;;;40.08;14.05;;;;;;;-0.83;99.30;100912.91;1743781;82;21474;-61
2023/01/15 06:34:17;;;;;;;38.00;14.53;;;;;;;-0.81;99.33;100916.36;1743758;82;21085;-62
2023/01/15 06:36:45;;;;;;;31.12;11.83;;;;;;;-0.82;99.24;100914.15;1744061;82;21388;-60
2023/01/15 06:39:15;;;;;;;35.43;13.62;;;;;;;-0.82;99.17;100911.95;1743821;81;20981;-62
2023/01/15 06:47:21;;;;;;;35.98;13.60;;;;;;;-0.87;98.94;100911.42;1743936;81;21443;-61
2023/01/15 06:49:56;;;;;;;28.67;11.68;;;;;;;-0.85;98.98;100912.17;1743149;81;21031;-62
2023/01/15 06:52:28;;;;;;;34.15;12.10;;;;;;;-0.85;98.91;100902.76;1743707;81;21036;-61
2023/01/15 06:54:57;;;;;;;31.62;13.48;;;;;;;-0.84;98.88;100899.09;1743914;81;21079;-62
2023/01/15 06:57:26;;;;;;;32.63;11.90;;;;;;;-0.86;98.77;100903.24;1744021;81;21000;-61
2023/01/15 06:59:55;;;;;;;31.68;12.50;;;;;;;-0.89;98.66;100902.61;1751422;80;21027;-62
2023/01/15 07:02:24;;;;;;;33.25;12.80;;;;;;;-0.89;98.67;100906.64;1756960;82;21015;-61
2023/01/15 07:04:53;;;;;;;35.63;13.28;;;;;;;-0.90;98.61;100914.34;1757005;82;21047;-62
2023/01/15 07:07:21;;;;;;;31.45;11.60;;;;;;;-0.88;98.63;100909.70;1756851;81;21015;-60
2023/01/15 07:09:51;;;;;;;26.75;10.10;;;;;;;-0.85;98.69;100908.99;1757305;81;21023;-63
2023/01/15 07:12:21;;;;;;;26.10;10.98;;;;;;;-0.85;98.60;100904.95;1756995;80;21055;-62
2023/01/15 07:14:50;;;;;;;28.17;10.88;;;;;;;-0.84;98.43;100901.78;1756890;80;20991;-62
2023/01/15 07:17:19;;;;;;;29.32;10.58;;;;;;;-0.85;98.38;100896.03;1757089;81;21443;-61
2023/01/15 07:27:22;;;;;;;24.67;10.32;;;;;;;-0.76;98.19;100910.15;1847996;77;22117;-62
2023/01/15 07:29:51;;;;;;;28.45;11.25;;;;;;;-0.81;98.04;100909.62;1820888;79;21576;-61
2023/01/15 07:32:20;;;;;;;29.75;10.75;;;;;;;-0.82;98.01;100911.46;1753883;82;21095;-62
2023/01/15 07:34:49;;;;;;;28.25;11.05;;;;;;;-0.78;98.06;100916.13;1753799;81;21600;-62
2023/01/15 07:37:17;;;;;;;28.77;11.97;;;;;;;-0.76;98.02;100914.19;1772131;81;21541;-62
2023/01/15 07:39:46;;;;;;;27.05;10.65;;;;;;;-0.75;97.96;100919.94;1753811;82;21107;-61
2023/01/15 07:50:38;;;;;;;28.87;10.30;;;;;;;-0.70;97.61;100909.70;1728910;82;20525;-60
2023/01/15 07:53:06;;;;;;;27.22;10.40;;;;;;;-0.69;97.63;100906.89;1753732;82;21122;-61
2023/01/15 07:55:35;;;;;;;27.50;10.78;;;;;;;-0.67;97.63;100913.02;1771677;81;21111;-63
2023/01/15 07:58:04;;;;;;;29.72;10.30;;;;;;;-0.65;97.53;100913.80;1784685;80;21182;-62
2023/01/15 08:00:33;;;;;;;29.30;10.85;;;;;;;-0.64;97.47;100911.97;1753972;82;21518;-62
2023/01/15 08:03:02;;;;;;;27.82;10.50;;;;;;;-0.63;97.40;100908.30;1754072;82;21146;-61
2023/01/15 08:05:31;;;;;;;29.57;11.10;;;;;;;-0.60;97.34;100908.56;1753874;82;21130;-63
2023/01/15 08:08:00;;;;;;;31.02;11.57;;;;;;;-0.61;97.23;100914.44;1753657;82;21590;-61
2023/01/15 08:10:30;;;;;;;27.17;11.38;;;;;;;-0.58;97.24;100916.03;1753465;81;21550;-60
2023/01/15 08:15:46;;;;;;;30.12;10.85;;;;;;;-0.57;97.12;100910.54;1753993;82;21122;-61
2023/01/15 08:18:15;;;;;;;31.17;10.85;;;;;;;-0.54;97.06;100905.41;1753688;82;21565;-59
2023/01/15 08:20:43;;;;;;;29.25;10.58;;;;;;;-0.56;96.96;100908.70;1753768;82;21162;-61
2023/01/15 08:23:14;;;;;;;27.22;10.65;;;;;;;-0.58;96.87;100911.52;1753541;82;21643;-61
2023/01/15 08:25:44;;;;;;;30.23;11.22;;;;;;;-0.59;96.82;100907.59;1751877;82;21123;-61
2023/01/15 08:28:14;;;;;;;29.27;11.10;;;;;;;-0.59;96.78;100908.94;1745912;82;22134;-61
2023/01/15 08:30:43;;;;;;;30.77;11.68;;;;;;;-0.59;96.76;100906.24;1814670;79;21477;-61
2023/01/15 08:33:12;;;;;;;27.48;11.50;;;;;;;-0.59;96.75;100903.06;1745538;82;21602;-62
2023/01/15 08:35:41;;;;;;;34.27;12.63;;;;;;;-0.58;96.75;100900.75;1815302;79;21126;-62
2023/01/15 08:38:11;;;;;;;30.40;11.93;;;;;;;-0.56;96.73;100900.15;1745235;82;21167;-60
2023/01/15 08:40:57;;;;;;;33.38;11.83;;;;;;;-0.54;96.71;100897.34;1814256;79;21558;-62
2023/01/15 08:43:11;;;;;;;32.42;11.65;;;;;;;-0.54;96.66;100898.20;1742256;82;21139;-61
2023/01/15 08:45:39;;;;;;;29.30;11.63;;;;;;;-0.55;96.57;100899.17;1814327;79;21588;-61
2023/01/15 08:48:10;;;;;;;32.78;11.38;;;;;;;-0.57;96.47;100893.05;1814531;79;21580;-62
2023/01/15 08:50:38;;;;;;;29.40;11.50;;;;;;;-0.58;96.48;100894.02;1814199;79;21095;-62
2023/01/15 08:53:08;;;;;;;24.27;9.73;;;;;;;-0.57;96.51;100884.12;1745283;82;21115;-60
2023/01/15 08:55:38;;;;;;;30.82;12.00;;;;;;;-0.58;96.44;100883.26;1814557;79;21178;-61
2023/01/15 08:58:08;;;;;;;28.07;11.00;;;;;;;-0.57;96.47;100884.12;1745092;82;21236;-61
2023/01/15 09:00:36;;;;;;;32.63;12.18;;;;;;;-0.56;96.46;100871.03;1814640;79;21513;-61
2023/01/15 09:03:05;;;;;;;28.55;11.12;;;;;;;-0.55;96.43;100874.09;1814285;79;21130;-61
2023/01/15 09:05:35;;;;;;;28.02;10.93;;;;;;;-0.55;96.44;100879.48;1735503;82;21190;-61
2023/01/15 09:08:07;;;;;;;29.52;11.73;;;;;;;-0.54;96.46;100870.43;1724894;82;21126;-61
2023/01/15 09:10:38;;;;;;;29.75;10.43;;;;;;;-0.51;96.56;100862.12;1748325;82;21119;-60
2023/01/15 09:13:07;;;;;;;28.70;11.15;;;;;;;-0.47;96.50;100862.27;1745703;82;21208;-61
2023/01/15 09:15:37;;;;;;;26.05;10.32;;;;;;;-0.47;96.38;100863.13;1781891;80;21185;-61
2023/01/15 09:18:09;;;;;;;26.87;9.98;;;;;;;-0.46;96.41;100850.03;1782522;80;21135;-60
2023/01/15 09:20:39;;;;;;;25.80;10.23;;;;;;;-0.42;96.38;100858.73;1782239;80;21116;-60
2023/01/15 09:23:08;;;;;;;29.32;10.35;;;;;;;-0.42;96.35;100848.83;1782324;80;21112;-60
2023/01/15 09:25:36;;;;;;;26.75;10.15;;;;;;;-0.42;96.22;100848.83;1782390;80;21544;-63
2023/01/15 09:28:05;;;;;;;21.68;9.43;;;;;;;-0.40;96.11;100841.98;1774320;81;21112;-63
2023/01/15 09:30:34;;;;;;;26.42;9.93;;;;;;;-0.43;95.93;100833.65;1774339;80;21180;-61
2023/01/15 09:33:03;;;;;;;23.27;9.48;;;;;;;-0.44;95.80;100843.19;1774235;81;21188;-62
2023/01/15 09:35:33;;;;;;;31.30;11.30;;;;;;;-0.40;96.23;100839.28;1774174;81;21121;-63
2023/01/15 09:38:03;;;;;;;23.25;9.40;;;;;;;-0.37;96.10;100835.02;1774185;79;21523;-62
2023/01/15 09:40:57;;;;;;;25.80;9.33;;;;;;;-0.36;96.00;100833.55;1773883;80;21115;-63
2023/01/15 09:43:49;;;;;;;20.57;9.50;;;;;;;-0.34;95.98;100836.98;1774053;81;21562;-62
2023/01/15 09:46:25;;;;;;;23.83;8.15;;;;;;;-0.33;95.86;100834.66;1774338;81;21515;-61
2023/01/15 09:49:44;;;;;;;21.07;8.50;;;;;;;-0.33;95.69;100834.66;1774023;81;21562;-59
2023/01/15 09:52:25;;;;;;;23.27;8.78;;;;;;;-0.36;95.61;100829.52;1707478;84;21700;-62
2023/01/15 09:55:14;;;;;;;20.12;8.43;;;;;;;-0.38;95.52;100820.70;1707580;83;21142;-60
2023/01/15 09:57:45;;;;;;;20.88;7.58;;;;;;;-0.37;95.50;100813.48;1748540;80;21115;-61
2023/01/15 10:00:23;;;;;;;19.17;8.00;;;;;;;-0.36;95.48;100797.21;1774191;81;21127;-61
2023/01/15 10:03:31;;;;;;;22.35;8.53;;;;;;;-0.34;95.40;100789.02;1774431;80;21601;-61
2023/01/15 10:06:06;;;;;;;;;;;;;;;-0.34;95.36;100781.80;1769243;81;21547;-61
2023/01/15 10:08:45;;;;;;;16.90;7.58;;;;;;;-0.35;95.22;100772.00;1774137;80;20187;-60
2023/01/15 10:11:20;;;;;;;24.77;8.55;;;;;;;-0.36;95.20;100767.59;1774281;81;21178;-62
2023/01/15 10:14:04;;;;;;;17.02;7.67;;;;;;;-0.33;95.27;100771.88;1773955;80;21123;-59
2023/01/15 10:16:33;;;;;;;20.50;9.50;;;;;;;-0.30;95.27;100768.09;1774138;80;21147;-59
2023/01/15 10:19:02;;;;;;;19.15;8.20;;;;;;;-0.28;95.20;100772.38;1774349;80;21147;-60
2023/01/15 10:22:01;;;;;;;22.55;9.00;;;;;;;-0.26;95.11;100778.51;1774253;80;21578;-59
2023/01/15 10:24:39;;;;;;;20.88;8.50;;;;;;;-0.24;95.08;100778.39;1774170;80;22076;-58
2023/01/15 10:27:21;;;;;;;18.48;7.22;;;;;;;-0.21;95.02;100774.11;1778329;80;21258;-58
2023/01/15 10:30:00;;;;;;;19.77;9.20;;;;;;;-0.21;95.00;100773.63;1782553;80;21158;-59
2023/01/15 10:32:53;;;;;;;15.88;7.47;;;;;;;-0.19;94.95;100774.36;1782357;80;21388;-59
2023/01/15 10:35:32;;;;;;;16.40;7.50;;;;;;;-0.16;94.95;100767.88;1781037;80;21177;-58
2023/01/15 10:38:32;;;;;;;16.35;7.40;;;;;;;-0.16;94.86;100759.80;1782508;80;21667;-57
2023/01/15 10:41:20;;;;;;;15.43;7.28;;;;;;;-0.12;94.85;100754.55;1782250;80;21118;-59
2023/01/15 10:44:04;;;;;;;15.83;7.03;;;;;;;-0.11;94.71;100746.34;1782437;80;21172;-57
2023/01/15 10:46:37;;;;;;;15.45;7.60;;;;;;;-0.10;94.64;100732.38;1781774;80;21546;-58
2023/01/15 10:49:13;;;;;;;22.30;11.18;;;;;;;-0.10;94.58;100727.00;1782496;80;21193;-58
2023/01/15 10:51:47;;;;;;;19.65;9.65;;;;;;;-0.10;94.55;100731.04;1782300;80;21186;-58
2023/01/15 10:54:41;;;;;;;17.98;9.23;;;;;;;-0.08;94.51;100726.39;1782053;80;21142;-58
2023/01/15 10:57:45;;;;;;;15.40;6.95;;;;;;;-0.08;94.46;100716.96;1782082;80;21568;-59
2023/01/15 11:00:15;;;;;;;13.43;6.33;;;;;;;-0.06;94.44;100710.47;1782224;80;21165;-59
2023/01/15 11:03:02;;;;;;;14.07;6.30;;;;;;;-0.06;94.28;100713.66;1782413;80;21150;-58
2023/01/15 11:05:32;;;;;;;14.78;6.55;;;;;;;-0.08;94.12;100710.23;1782415;80;21087;-59
2023/01/15 11:08:06;;;;;;;12.58;5.90;;;;;;;-0.07;94.12;100701.17;1728823;80;21123;-59
2023/01/15 11:10:37;;;;;;;13.18;6.40;;;;;;;-0.04;94.04;100700.44;1777986;80;21184;-58
2023/01/15 11:19:42;;;;;;;15.28;6.78;;;;;;;0.03;93.89;100695.45;1782526;80;21118;-59
2023/01/15 11:22:18;;;;;;;16.07;7.33;;;;;;;0.06;93.87;100697.04;1745264;82;21222;-58
2023/01/15 11:24:53;;;;;;;15.03;7.05;;;;;;;0.08;93.79;100686.50;1777193;80;21154;-59
2023/01/15 11:27:30;;;;;;;15.43;6.37;;;;;;;0.09;93.65;100680.63;1778336;80;21198;-58
2023/01/15 11:30:00;;;;;;;;;;;;;;;0.07;93.46;100664.59;1776961;81;21147;-59
2023/01/15 11:32:35;;;;;;;14.87;6.95;;;;;;;0.07;93.42;100673.16;1774305;80;20175;-59
2023/01/15 11:35:15;;;;;;;15.40;6.90;;;;;;;0.06;93.45;100669.61;1717803;83;21153;-60
2023/01/15 11:37:44;;;;;;;16.50;7.28;;;;;;;0.07;93.40;100678.55;1655072;86;21628;-58
2023/01/15 11:40:22;;;;;;;17.77;7.30;;;;;;;0.09;93.47;100676.59;1717931;83;21209;-59
2023/01/15 11:51:45;;;;;;;15.85;7.50;;;;;;;0.12;93.37;100664.22;1656974;85;21212;-58
2023/01/15 11:54:14;;;;;;;18.67;8.55;;;;;;;0.12;93.39;100665.56;1797712;79;21122;-58
2023/01/15 11:56:44;;;;;;;20.50;10.73;;;;;;;0.11;93.36;100665.19;1805939;79;21542;-59
2023/01/15 11:59:16;;;;;;;21.50;12.73;;;;;;;0.13;93.39;100669.48;1805462;79;21124;-59
2023/01/15 12:01:58;;;;;;;22.55;10.50;;;;;;;0.14;93.34;100671.19;1805807;79;21103;-58
2023/01/15 12:04:51;;;;;;;19.42;9.00;;;;;;;0.13;93.28;100670.83;1805577;79;21557;-58
2023/01/15 12:07:24;;;;;;;19.82;8.98;;;;;;;0.12;93.24;100668.25;1805503;79;21601;-58
2023/01/15 12:10:13;;;;;;;18.35;8.78;;;;;;;0.12;93.24;100675.84;1805670;79;21098;-58
2023/01/15 12:13:35;;;;;;;21.35;8.98;;;;;;;0.13;93.26;100684.30;1805599;79;21216;-59
2023/01/15 12:16:43;;;;;;;18.02;8.88;;;;;;;0.14;93.33;100682.45;1790645;79;21583;-58
2023/01/15 12:19:30;;;;;;;20.30;8.60;;;;;;;0.14;93.33;100690.05;1805905;78;21172;-58
2023/01/15 12:22:11;;;;;;;16.60;8.00;;;;;;;0.15;93.33;100693.11;1806070;78;21122;-58
2023/01/15 12:25:18;;;;;;;17.67;8.05;;;;;;;0.14;93.30;100692.74;1805791;79;21462;-60
2023/01/15 12:28:16;;;;;;;17.30;8.25;;;;;;;0.15;93.32;100689.06;1814254;79;21114;-59
2023/01/15 12:31:03;;;;;;;16.12;8.10;;;;;;;0.13;93.18;100692.87;1793372;79;21218;-59
2023/01/15 12:33:50;;;;;;;19.77;8.40;;;;;;;0.10;93.18;100689.08;1820262;79;21098;-60
2023/01/15 12:36:33;;;;;;;18.73;8.63;;;;;;;0.11;93.21;100691.64;1820246;79;21161;-58
2023/01/15 12:39:06;;;;;;;19.45;8.10;;;;;;;0.09;93.28;100689.56;1819937;79;21587;-58